createdAt,value
2019-05-25T00:00:16.221Z,3.90
2019-05-25T00:02:45.565Z,3.00
2019-05-25T00:05:14.967Z,3.00
2019-05-25T00:07:44.261Z,3.17
2019-05-25T00:10:14.129Z,3.33
2019-05-25T00:12:43.456Z,3.40
2019-05-25T00:15:13.856Z,3.00
2019-05-25T00:17:45.676Z,3.00
2019-05-25T00:20:15.052Z,3.27
2019-05-25T00:22:44.351Z,3.50
2019-05-25T00:25:13.655Z,3.20
2019-05-25T00:27:42.941Z,3.08
2019-05-25T00:30:13.186Z,3.33
2019-05-25T00:32:42.490Z,3.35
2019-05-25T00:35:14.809Z,3.10
2019-05-25T00:37:44.109Z,3.52
2019-05-25T00:40:13.759Z,2.98
2019-05-25T00:42:43.074Z,3.40
2019-05-25T00:45:12.815Z,3.00
2019-05-25T00:47:42.125Z,3.25
2019-05-25T00:50:11.856Z,3.22
2019-05-25T00:52:41.238Z,3.75
2019-05-25T00:55:13.829Z,3.50
2019-05-25T00:57:42.809Z,3.70
2019-05-25T01:00:15.600Z,3.70
2019-05-25T01:02:44.984Z,4.00
2019-05-25T01:05:15.215Z,3.45
2019-05-25T01:07:44.512Z,3.83
2019-05-25T01:10:15.228Z,3.50
2019-05-25T01:12:44.598Z,4.00
2019-05-25T01:15:15.607Z,3.87
2019-05-25T01:17:44.952Z,3.10
2019-05-25T01:20:15.763Z,4.12
2019-05-25T01:22:45.684Z,4.40
2019-05-25T01:25:16.370Z,3.90
2019-05-25T01:27:45.691Z,3.75
2019-05-25T01:30:16.785Z,3.98
2019-05-25T01:32:46.106Z,4.20
2019-05-25T01:35:16.147Z,3.98
2019-05-25T01:37:48.456Z,4.15
2019-05-25T01:40:17.292Z,4.22
2019-05-25T01:42:46.625Z,4.40
2019-05-25T01:45:17.682Z,4.28
2019-05-25T01:47:47.350Z,4.37
2019-05-25T01:50:17.860Z,4.33
2019-05-25T01:52:47.495Z,4.28
2019-05-25T01:55:16.871Z,4.42
2019-05-25T01:57:46.193Z,4.12
2019-05-25T02:00:16.603Z,4.20
2019-05-25T02:02:45.900Z,4.12
2019-05-25T02:05:16.782Z,4.60
2019-05-25T02:07:46.156Z,4.17
2019-05-25T02:10:15.764Z,4.75
2019-05-25T02:12:45.093Z,3.80
2019-05-25T02:15:14.784Z,4.22
2019-05-25T02:17:44.094Z,4.22
2019-05-25T02:20:15.629Z,4.17
2019-05-25T02:22:45.105Z,4.25
2019-05-25T02:25:18.911Z,4.45
2019-05-25T02:27:48.687Z,3.95
2019-05-25T02:30:19.213Z,4.58
2019-05-25T02:32:48.507Z,4.53
2019-05-25T02:35:28.032Z,4.75
2019-05-25T02:37:58.043Z,4.53
2019-05-25T02:40:27.952Z,5.00
2019-05-25T02:42:57.965Z,4.53
2019-05-25T02:45:27.368Z,4.45
2019-05-25T02:47:56.681Z,4.97
2019-05-25T02:50:26.420Z,4.70
2019-05-25T02:52:55.998Z,4.45
2019-05-25T02:55:34.217Z,4.62
2019-05-25T02:57:56.602Z,4.65
2019-05-25T03:00:36.004Z,4.80
2019-05-25T03:03:06.106Z,4.67
2019-05-25T03:05:35.385Z,4.72
2019-05-25T03:08:05.532Z,4.75
2019-05-25T03:10:36.275Z,4.35
2019-05-25T03:13:06.091Z,4.72
2019-05-25T03:15:38.535Z,5.20
2019-05-25T03:18:08.133Z,4.60
2019-05-25T03:20:37.499Z,4.55
2019-05-25T03:23:06.810Z,4.72
2019-05-25T03:25:48.528Z,5.78
2019-05-25T03:28:07.478Z,5.25
2019-05-25T03:30:38.656Z,5.47
2019-05-25T03:33:07.962Z,5.22
2019-05-25T03:35:37.306Z,5.50
2019-05-25T03:38:06.606Z,5.05
2019-05-25T03:40:35.923Z,5.60
2019-05-25T03:43:05.280Z,5.42
2019-05-25T03:45:35.243Z,5.67
2019-05-25T03:48:04.776Z,5.75
2019-05-25T03:50:34.091Z,5.70
2019-05-25T03:53:03.655Z,5.37
2019-05-25T03:55:32.957Z,5.70
2019-05-25T03:58:02.262Z,5.58
2019-05-25T04:00:38.864Z,5.58
2019-05-25T04:03:08.533Z,6.28
2019-05-25T04:05:37.843Z,6.05
2019-05-25T04:08:07.537Z,6.72
2019-05-25T04:10:39.049Z,6.67
2019-05-25T04:13:08.256Z,6.62
2019-05-25T04:15:37.562Z,5.70
2019-05-25T04:18:09.554Z,6.40
2019-05-25T04:20:38.876Z,6.80
2019-05-25T04:23:08.455Z,6.30
2019-05-25T04:25:37.764Z,7.00
2019-05-25T04:28:07.379Z,6.72
2019-05-25T04:30:36.792Z,7.15
2019-05-25T04:33:06.086Z,6.70
2019-05-25T04:35:35.403Z,7.33
2019-05-25T04:38:04.720Z,6.87
2019-05-25T04:40:34.273Z,7.20
2019-05-25T04:43:03.584Z,7.10
2019-05-25T04:45:32.886Z,7.28
2019-05-25T04:48:02.590Z,7.00
2019-05-25T04:50:31.938Z,7.37
2019-05-25T04:53:01.243Z,7.62
2019-05-25T04:55:30.558Z,7.60
2019-05-25T04:57:59.864Z,8.28
2019-05-25T05:00:29.245Z,7.75
2019-05-25T05:02:58.557Z,8.35
2019-05-25T05:05:27.887Z,7.75
2019-05-25T05:07:57.210Z,8.20
2019-05-25T05:10:26.799Z,8.23
2019-05-25T05:12:56.918Z,8.70
2019-05-25T05:15:26.230Z,8.50
2019-05-25T05:17:55.567Z,7.95
2019-05-25T05:20:25.121Z,7.97
2019-05-25T05:22:54.440Z,8.50
2019-05-25T05:25:24.043Z,8.88
2019-05-25T05:27:53.347Z,8.60
2019-05-25T05:30:34.920Z,8.95
2019-05-25T05:33:05.467Z,8.18
2019-05-25T05:35:38.694Z,7.97
2019-05-25T05:38:06.715Z,7.87
2019-05-25T05:40:37.754Z,8.08
2019-05-25T05:43:09.911Z,8.13
2019-05-25T05:45:42.898Z,7.25
2019-05-25T05:48:13.419Z,6.70
2019-05-25T05:50:43.691Z,7.10
2019-05-25T05:53:13.278Z,8.15
2019-05-25T05:55:42.868Z,7.80
2019-05-25T05:58:12.487Z,6.85
2019-05-25T06:00:41.799Z,6.87
2019-05-25T06:03:11.115Z,6.92
2019-05-25T06:05:40.687Z,6.72
2019-05-25T06:08:10.010Z,6.67
2019-05-25T06:10:39.307Z,6.87
2019-05-25T06:13:08.627Z,5.83
2019-05-25T06:15:37.943Z,6.37
2019-05-25T06:18:07.284Z,7.00
2019-05-25T06:20:36.908Z,6.37
2019-05-25T06:23:08.583Z,6.80
2019-05-25T06:25:37.249Z,6.53
2019-05-25T06:28:06.845Z,6.20
2019-05-25T06:30:36.457Z,6.03
2019-05-25T06:33:05.764Z,6.25
2019-05-25T06:35:35.078Z,6.28
2019-05-25T06:38:04.523Z,5.85
2019-05-25T06:40:33.837Z,6.00
2019-05-25T06:43:03.189Z,5.50
2019-05-25T06:45:32.472Z,5.97
2019-05-25T06:48:01.794Z,6.62
2019-05-25T06:50:31.094Z,6.25
2019-05-25T06:53:00.410Z,6.55
2019-05-25T06:55:29.715Z,6.03
2019-05-25T06:57:59.374Z,6.53
2019-05-25T07:00:29.072Z,5.35
2019-05-25T07:02:58.678Z,6.28
2019-05-25T07:05:28.012Z,6.20
2019-05-25T07:07:58.272Z,5.72
2019-05-25T07:10:27.582Z,4.90
2019-05-25T07:12:57.222Z,5.28
2019-05-25T07:15:26.821Z,5.20
2019-05-25T07:17:56.588Z,5.78
2019-05-25T07:20:26.229Z,5.35
2019-05-25T07:22:55.538Z,5.17
2019-05-25T07:25:25.532Z,4.85
2019-05-25T07:27:59.788Z,4.83
2019-05-25T07:30:25.901Z,4.72
2019-05-25T07:32:55.785Z,5.47
2019-05-25T07:35:25.382Z,4.75
2019-05-25T07:37:54.662Z,4.53
2019-05-25T07:40:23.987Z,3.72
2019-05-25T07:42:53.305Z,4.03
2019-05-25T07:45:22.615Z,5.10
2019-05-25T07:47:51.910Z,4.80
2019-05-25T07:50:21.330Z,4.70
2019-05-25T07:52:50.945Z,4.60
2019-05-25T07:55:20.626Z,4.45
2019-05-25T07:57:49.944Z,4.05
2019-05-25T08:00:19.595Z,4.30
2019-05-25T08:02:49.144Z,3.95
2019-05-25T08:05:18.525Z,3.40
2019-05-25T08:07:47.805Z,3.12
2019-05-25T08:10:17.826Z,3.35
2019-05-25T08:12:47.376Z,3.70
2019-05-25T08:15:17.231Z,3.75
2019-05-25T08:17:47.297Z,3.70
2019-05-25T08:20:17.105Z,3.55
2019-05-25T08:22:46.405Z,3.83
2019-05-25T08:25:15.842Z,4.20
2019-05-25T08:27:45.150Z,3.87
2019-05-25T08:30:14.598Z,4.10
2019-05-25T08:32:44.217Z,3.87
2019-05-25T08:35:14.078Z,3.60
2019-05-25T08:37:43.378Z,4.25
2019-05-25T08:40:13.609Z,3.70
2019-05-25T08:42:42.897Z,4.45
2019-05-25T08:45:12.913Z,3.67
2019-05-25T08:47:42.206Z,3.65
2019-05-25T08:50:12.227Z,3.65
2019-05-25T08:52:41.526Z,4.00
2019-05-25T08:55:10.923Z,3.95
2019-05-25T08:57:40.224Z,3.92
2019-05-25T09:00:10.430Z,4.35
2019-05-25T09:02:39.739Z,4.20
2019-05-25T09:05:09.577Z,3.55
2019-05-25T09:07:38.883Z,3.83
2019-05-25T09:10:09.796Z,4.53
2019-05-25T09:12:39.111Z,4.60
2019-05-25T09:15:09.901Z,4.80
2019-05-25T09:17:39.615Z,3.62
2019-05-25T09:20:10.451Z,4.42
2019-05-25T09:22:39.758Z,4.53
2019-05-25T09:25:11.702Z,4.15
2019-05-25T09:27:41.024Z,5.03
2019-05-25T09:30:10.733Z,4.50
2019-05-25T09:32:40.073Z,4.55
2019-05-25T09:35:10.083Z,4.70
2019-05-25T09:37:39.396Z,4.65
2019-05-25T09:40:10.074Z,5.22
2019-05-25T09:42:40.008Z,4.92
2019-05-25T09:45:14.037Z,4.05
2019-05-25T09:47:42.643Z,4.67
2019-05-25T09:50:14.257Z,4.65
2019-05-25T09:52:43.939Z,5.15
2019-05-25T09:55:13.499Z,4.20
2019-05-25T09:57:43.061Z,4.92
2019-05-25T10:00:15.960Z,4.70
2019-05-25T10:02:45.370Z,4.78
2019-05-25T10:05:16.273Z,4.72
2019-05-25T10:07:45.586Z,4.90
2019-05-25T10:10:16.108Z,5.15
2019-05-25T10:12:45.409Z,8.50
2019-05-25T10:15:15.833Z,6.35
2019-05-25T10:17:45.143Z,5.05
2019-05-25T10:20:15.049Z,4.20
2019-05-25T10:22:44.388Z,4.03
2019-05-25T10:25:14.021Z,4.30
2019-05-25T10:27:43.340Z,4.05
2019-05-25T10:30:13.775Z,5.15
2019-05-25T10:32:43.193Z,4.00
2019-05-25T10:35:13.370Z,4.97
2019-05-25T10:37:42.676Z,4.08
2019-05-25T10:40:13.901Z,5.22
2019-05-25T10:42:43.205Z,5.55
2019-05-25T10:45:13.945Z,5.12
2019-05-25T10:47:43.488Z,4.58
2019-05-25T10:50:14.438Z,4.72
2019-05-25T10:52:43.729Z,4.60
2019-05-25T10:55:15.739Z,5.25
2019-05-25T10:57:45.299Z,4.97
2019-05-25T11:00:21.300Z,4.58
2019-05-25T11:02:50.679Z,4.97
2019-05-25T11:05:20.435Z,4.97
2019-05-25T11:07:49.752Z,4.62
2019-05-25T11:10:19.403Z,4.85
2019-05-25T11:12:48.706Z,5.12
2019-05-25T11:15:19.021Z,4.78
2019-05-25T11:17:48.605Z,4.58
2019-05-25T11:20:18.541Z,5.30
2019-05-25T11:22:48.234Z,4.72
2019-05-25T11:25:18.075Z,4.58
2019-05-25T11:27:48.374Z,6.90
2019-05-25T11:30:19.203Z,6.17
2019-05-25T11:32:48.816Z,5.53
2019-05-25T11:35:19.992Z,4.97
2019-05-25T11:37:49.287Z,5.72
2019-05-25T11:40:19.407Z,5.58
2019-05-25T11:42:48.704Z,5.47
2019-05-25T11:45:18.930Z,5.12
2019-05-25T11:47:48.264Z,4.90
2019-05-25T11:50:18.234Z,5.87
2019-05-25T11:52:47.836Z,5.42
2019-05-25T11:55:19.659Z,5.85
2019-05-25T11:57:49.018Z,6.47
2019-05-25T12:00:25.472Z,6.42
2019-05-25T12:02:52.621Z,5.62
2019-05-25T12:05:22.316Z,5.30
2019-05-25T12:07:51.622Z,4.97
2019-05-25T12:10:21.146Z,6.75
2019-05-25T12:12:50.446Z,6.40
2019-05-25T12:15:20.446Z,6.65
2019-05-25T12:17:49.823Z,6.42
2019-05-25T12:20:19.647Z,7.10
2019-05-25T12:22:48.951Z,5.87
2019-05-25T12:25:18.435Z,5.62
2019-05-25T12:27:49.353Z,5.85
2019-05-25T12:30:19.868Z,5.95
2019-05-25T12:32:49.234Z,6.58
2019-05-25T12:35:19.630Z,6.17
2019-05-25T12:37:49.090Z,6.12
2019-05-25T12:40:19.079Z,5.85
2019-05-25T12:42:48.379Z,6.30
2019-05-25T12:45:17.785Z,6.22
2019-05-25T12:47:47.103Z,6.30
2019-05-25T12:50:17.352Z,6.55
2019-05-25T12:52:46.700Z,6.42
2019-05-25T12:55:16.205Z,5.33
2019-05-25T12:57:45.530Z,7.12
2019-05-25T13:00:16.563Z,7.25
2019-05-25T13:02:46.240Z,7.15
2019-05-25T13:05:16.451Z,5.55
2019-05-25T13:07:45.767Z,5.17
2019-05-25T13:10:16.709Z,5.47
2019-05-25T13:12:46.001Z,5.90
2019-05-25T13:15:15.373Z,5.35
2019-05-25T13:17:45.035Z,6.70
2019-05-25T13:20:15.227Z,5.53
2019-05-25T13:22:44.547Z,5.40
2019-05-25T13:25:14.187Z,6.90
2019-05-25T13:27:43.507Z,5.62
2019-05-25T13:30:13.850Z,6.67
2019-05-25T13:32:43.125Z,5.22
2019-05-25T13:35:13.068Z,5.85
2019-05-25T13:37:42.398Z,5.20
2019-05-25T13:40:12.426Z,5.75
2019-05-25T13:42:41.763Z,6.05
2019-05-25T13:45:11.525Z,8.30
2019-05-25T13:47:40.880Z,7.37
2019-05-25T13:50:11.586Z,8.80
2019-05-25T13:52:40.898Z,6.20
2019-05-25T13:55:10.899Z,5.53
2019-05-25T13:57:40.191Z,5.70
2019-05-25T14:00:10.426Z,6.12
2019-05-25T14:02:39.907Z,5.53
2019-05-25T14:05:09.818Z,5.00
2019-05-25T14:07:39.143Z,5.05
2019-05-25T14:10:10.256Z,4.95
2019-05-25T14:12:39.857Z,5.03
2019-05-25T14:15:10.234Z,5.15
2019-05-25T14:17:39.669Z,4.87
2019-05-25T14:20:09.695Z,4.50
2019-05-25T14:22:39.092Z,5.28
2019-05-25T14:25:09.784Z,5.00
2019-05-25T14:27:39.454Z,5.97
2019-05-25T14:30:10.381Z,5.87
2019-05-25T14:32:40.230Z,4.65
2019-05-25T14:35:10.305Z,4.17
2019-05-25T14:37:39.925Z,4.85
2019-05-25T14:40:11.721Z,3.90
2019-05-25T14:42:41.173Z,3.20
2019-05-25T14:45:13.646Z,3.20
2019-05-25T14:47:43.004Z,3.17
2019-05-25T14:50:12.937Z,3.50
2019-05-25T14:52:43.364Z,3.80
2019-05-25T14:55:13.851Z,3.00
2019-05-25T14:57:43.154Z,3.72
2019-05-25T15:00:13.432Z,3.30
2019-05-25T15:02:42.736Z,3.45
2019-05-25T15:05:12.729Z,3.80
2019-05-25T15:07:42.037Z,3.40
2019-05-25T15:10:12.582Z,4.42
2019-05-25T15:12:41.882Z,3.70
2019-05-25T15:15:11.894Z,3.85
2019-05-25T15:17:43.187Z,4.50
2019-05-25T15:20:14.063Z,3.58
2019-05-25T15:22:46.694Z,3.40
2019-05-25T15:25:14.823Z,3.10
2019-05-25T15:27:46.105Z,3.30
2019-05-25T15:30:16.202Z,4.17
2019-05-25T15:32:45.821Z,3.72
2019-05-25T15:35:19.411Z,3.80
2019-05-25T15:37:46.979Z,3.42
2019-05-25T15:40:17.596Z,3.67
2019-05-25T15:42:46.908Z,3.75
2019-05-25T15:45:17.251Z,4.17
2019-05-25T15:47:46.556Z,4.03
2019-05-25T15:50:17.578Z,4.17
2019-05-25T15:52:46.822Z,4.08
2019-05-25T15:55:16.826Z,4.22
2019-05-25T15:57:46.398Z,4.35
2019-05-25T16:00:16.364Z,4.40
2019-05-25T16:02:45.735Z,4.42
2019-05-25T16:05:16.149Z,3.95
2019-05-25T16:07:50.393Z,5.15
2019-05-25T16:10:19.781Z,5.42
2019-05-25T16:12:49.089Z,4.75
2019-05-25T16:15:27.514Z,4.40
2019-05-25T16:17:56.815Z,5.95
2019-05-25T16:20:26.130Z,4.50
2019-05-25T16:22:55.417Z,4.33
2019-05-25T16:25:24.975Z,4.42
2019-05-25T16:27:54.283Z,4.95
2019-05-25T16:30:23.647Z,4.35
2019-05-25T16:33:11.647Z,4.62
2019-05-25T16:35:24.299Z,5.12
2019-05-25T16:37:53.747Z,5.15
2019-05-25T16:40:23.069Z,4.95
2019-05-25T16:42:52.284Z,4.97
2019-05-25T16:45:21.674Z,5.08
2019-05-25T16:47:50.982Z,4.85
2019-05-25T16:50:20.743Z,5.22
2019-05-25T16:52:50.129Z,10.23
2019-05-25T16:55:20.163Z,6.05
2019-05-25T16:57:49.451Z,4.92
2019-05-25T17:00:27.785Z,5.65
2019-05-25T17:02:59.353Z,5.10
2019-05-25T17:05:29.313Z,4.72
2019-05-25T17:07:58.606Z,4.75
2019-05-25T17:10:27.914Z,4.97
2019-05-25T17:12:57.316Z,4.20
2019-05-25T17:15:26.695Z,3.65
2019-05-25T17:17:55.991Z,2.92
2019-05-25T17:20:25.657Z,2.98
2019-05-25T17:22:54.973Z,2.27
2019-05-25T17:25:24.580Z,3.37
2019-05-25T17:27:53.889Z,5.67
2019-05-25T17:30:45.520Z,14.83
2019-05-25T17:33:15.761Z,7.50
2019-05-25T17:35:45.512Z,6.72
2019-05-25T17:38:14.830Z,4.87
2019-05-25T17:40:44.539Z,3.80
2019-05-25T17:43:13.830Z,3.92
2019-05-25T17:45:43.138Z,3.52
2019-05-25T17:48:12.737Z,3.77
2019-05-25T17:50:42.045Z,3.77
2019-05-25T17:53:11.348Z,4.40
2019-05-25T17:55:40.658Z,4.67
2019-05-25T17:58:09.957Z,4.65
2019-05-25T18:00:43.855Z,4.62
2019-05-25T18:03:13.158Z,4.28
2019-05-25T18:05:42.456Z,4.58
2019-05-25T18:08:11.824Z,3.50
2019-05-25T18:10:52.578Z,3.83
2019-05-25T18:13:12.492Z,8.88
2019-05-25T18:15:41.794Z,8.38
2019-05-25T18:18:11.405Z,8.40
2019-05-25T18:20:40.702Z,5.50
2019-05-25T18:23:10.080Z,7.70
2019-05-25T18:25:39.696Z,5.05
2019-05-25T18:28:09.008Z,4.08
2019-05-25T18:30:38.456Z,6.67
2019-05-25T18:33:07.768Z,7.67
2019-05-25T18:35:37.063Z,9.30
2019-05-25T18:38:06.735Z,11.18
2019-05-25T18:40:36.061Z,14.38
2019-05-25T18:43:05.626Z,7.37
2019-05-25T18:45:34.932Z,6.58
2019-05-25T18:48:04.614Z,5.42
2019-05-25T18:50:33.924Z,6.47
2019-05-25T18:53:03.537Z,7.40
2019-05-25T18:55:33.154Z,4.67
2019-05-25T18:58:02.459Z,4.65
2019-05-25T19:00:31.795Z,5.60
2019-05-25T19:03:02.296Z,4.95
2019-05-25T19:05:31.876Z,5.22
2019-05-25T19:08:01.181Z,4.53
2019-05-25T19:10:30.798Z,4.62
2019-05-25T19:13:00.603Z,3.83
2019-05-25T19:15:29.903Z,3.95
2019-05-25T19:17:59.224Z,3.75
2019-05-25T19:20:28.524Z,4.10
2019-05-25T19:22:58.123Z,3.98
2019-05-25T19:25:27.423Z,4.08
2019-05-25T19:27:57.013Z,3.85
2019-05-25T19:30:26.512Z,3.52
2019-05-25T19:32:55.836Z,4.03
2019-05-25T19:35:25.132Z,4.25
2019-05-25T19:37:54.429Z,4.25
2019-05-25T19:40:23.731Z,4.50
2019-05-25T19:42:53.047Z,4.30
2019-05-25T19:45:23.114Z,4.78
2019-05-25T19:47:52.494Z,4.60
2019-05-25T19:50:22.418Z,4.50
2019-05-25T19:52:51.722Z,4.45
2019-05-25T19:55:21.084Z,4.00
2019-05-25T19:57:50.669Z,3.95
2019-05-25T20:00:20.095Z,4.10
2019-05-25T20:02:49.404Z,4.00
2019-05-25T20:05:19.810Z,4.10
2019-05-25T20:07:49.135Z,4.40
2019-05-25T20:10:18.800Z,4.12
2019-05-25T20:12:48.189Z,3.72
2019-05-25T20:15:18.133Z,3.58
2019-05-25T20:17:47.731Z,3.20
2019-05-25T20:20:17.652Z,3.98
2019-05-25T20:22:46.973Z,3.67
2019-05-25T20:25:17.073Z,3.67
2019-05-25T20:27:46.362Z,3.75
2019-05-25T20:30:17.603Z,5.08
2019-05-25T20:32:46.952Z,4.45
2019-05-25T20:35:31.674Z,4.55
2019-05-25T20:37:47.482Z,4.40
2019-05-25T20:40:17.572Z,4.22
2019-05-25T20:42:47.170Z,4.03
2019-05-25T20:45:19.790Z,3.87
2019-05-25T20:47:49.085Z,3.83
2019-05-25T20:50:18.393Z,3.65
2019-05-25T20:52:47.697Z,3.62
2019-05-25T20:55:17.638Z,3.47
2019-05-25T20:57:47.281Z,3.33
2019-05-25T21:00:16.738Z,3.62
2019-05-25T21:03:01.987Z,3.55
2019-05-25T21:05:17.077Z,3.70
2019-05-25T21:07:49.604Z,4.35
2019-05-25T21:10:18.988Z,4.30
2019-05-25T21:12:48.545Z,3.90
2019-05-25T21:15:18.195Z,3.83
2019-05-25T21:17:47.823Z,3.98
2019-05-25T21:20:17.571Z,4.40
2019-05-25T21:22:48.676Z,4.45
2019-05-25T21:25:18.894Z,4.20
2019-05-25T21:27:48.504Z,4.25
2019-05-25T21:30:18.333Z,4.70
2019-05-25T21:32:47.623Z,4.90
2019-05-25T21:35:17.129Z,4.87
2019-05-25T21:37:46.420Z,4.35
2019-05-25T21:40:16.162Z,4.47
2019-05-25T21:42:45.453Z,4.80
2019-05-25T21:45:15.571Z,5.55
2019-05-25T21:47:44.872Z,5.58
2019-05-25T21:50:15.855Z,5.30
2019-05-25T21:52:45.161Z,4.87
2019-05-25T21:55:14.898Z,4.58
2019-05-25T21:57:44.183Z,4.00
2019-05-25T22:00:16.601Z,4.62
2019-05-25T22:02:46.278Z,3.77
2019-05-25T22:05:16.131Z,4.72
2019-05-25T22:07:45.446Z,4.30
2019-05-25T22:10:14.843Z,4.30
2019-05-25T22:12:44.271Z,4.17
2019-05-25T22:15:14.006Z,4.40
2019-05-25T22:17:43.612Z,4.92
2019-05-25T22:20:13.887Z,4.83
2019-05-25T22:22:43.180Z,4.42
2019-05-25T22:25:14.585Z,5.47
2019-05-25T22:27:44.194Z,5.67
2019-05-25T22:30:17.540Z,6.60
2019-05-25T22:32:46.867Z,6.75
2019-05-25T22:35:16.244Z,5.65
2019-05-25T22:37:45.571Z,5.90
2019-05-25T22:40:15.429Z,5.85
2019-05-25T22:42:45.000Z,5.62
2019-05-25T22:45:16.778Z,6.00
2019-05-25T22:47:46.078Z,6.25
2019-05-25T22:50:15.591Z,6.65
2019-05-25T22:52:45.179Z,6.50
2019-05-25T22:55:14.888Z,6.60
2019-05-25T22:57:44.494Z,7.05
2019-05-25T23:00:14.412Z,7.20
2019-05-25T23:02:44.017Z,8.98
2019-05-25T23:05:14.549Z,12.70
2019-05-25T23:07:43.860Z,12.90
2019-05-25T23:10:13.292Z,9.00
2019-05-25T23:12:42.853Z,8.88
2019-05-25T23:15:12.776Z,8.60
2019-05-25T23:17:42.099Z,7.70
2019-05-25T23:20:12.095Z,8.53
2019-05-25T23:22:41.399Z,8.10
2019-05-25T23:25:10.840Z,7.97
2019-05-25T23:27:40.149Z,8.10
2019-05-25T23:30:12.269Z,8.70
2019-05-25T23:32:41.579Z,8.50
2019-05-25T23:35:11.685Z,8.90
2019-05-25T23:37:41.288Z,9.08
2019-05-25T23:40:10.931Z,9.25
2019-05-25T23:42:40.245Z,8.65
2019-05-25T23:45:10.957Z,9.00
2019-05-25T23:47:40.268Z,9.18
2019-05-25T23:50:10.478Z,9.18
2019-05-25T23:52:40.069Z,9.08
2019-05-25T23:55:10.890Z,9.28
2019-05-25T23:57:40.214Z,9.43
